sensor_id;sensor_type;location;lat;lon;timestamp;P1;durP1;ratioP1;P2;durP2;ratioP2
14748;SDS011;7466;53.574;9.976;2024-02-21T00:02:20;47.70;;;24.30;;
14748;SDS011;7466;53.574;9.976;2024-02-21T00:04:46;50.83;;;26.20;;
14748;SDS011;7466;53.574;9.976;2024-02-21T00:07:13;48.97;;;25.47;;
14748;SDS011;7466;53.574;9.976;2024-02-21T00:09:40;51.40;;;25.60;;
14748;SDS011;7466;53.574;9.976;2024-02-21T00:12:07;50.07;;;26.67;;
14748;SDS011;7466;53.574;9.976;2024-02-21T00:14:34;46.27;;;25.63;;
14748;SDS011;7466;53.574;9.976;2024-02-21T00:17:02;47.90;;;26.00;;
14748;SDS011;7466;53.574;9.976;2024-02-21T00:19:29;53.30;;;26.87;;
14748;SDS011;7466;53.574;9.976;2024-02-21T00:21:56;53.53;;;26.43;;
14748;SDS011;7466;53.574;9.976;2024-02-21T00:24:22;55.23;;;27.37;;
14748;SDS011;7466;53.574;9.976;2024-02-21T00:26:49;47.90;;;25.40;;
14748;SDS011;7466;53.574;9.976;2024-02-21T00:29:16;52.77;;;27.23;;
14748;SDS011;7466;53.574;9.976;2024-02-21T00:31:43;51.70;;;27.33;;
14748;SDS011;7466;53.574;9.976;2024-02-21T00:34:11;52.50;;;27.43;;
14748;SDS011;7466;53.574;9.976;2024-02-21T00:36:38;55.77;;;28.47;;
14748;SDS011;7466;53.574;9.976;2024-02-21T00:39:05;51.03;;;28.77;;
14748;SDS011;7466;53.574;9.976;2024-02-21T00:41:32;50.23;;;27.57;;
14748;SDS011;7466;53.574;9.976;2024-02-21T00:43:59;52.30;;;28.47;;
14748;SDS011;7466;53.574;9.976;2024-02-21T00:46:29;51.57;;;28.87;;
14748;SDS011;7466;53.574;9.976;2024-02-21T00:48:55;56.97;;;28.73;;
14748;SDS011;7466;53.574;9.976;2024-02-21T00:51:23;55.30;;;29.77;;
14748;SDS011;7466;53.574;9.976;2024-02-21T00:53:50;51.20;;;30.07;;
14748;SDS011;7466;53.574;9.976;2024-02-21T00:56:17;57.80;;;29.57;;
14748;SDS011;7466;53.574;9.976;2024-02-21T00:58:44;59.03;;;30.03;;
14748;SDS011;7466;53.574;9.976;2024-02-21T01:01:11;53.97;;;29.90;;
14748;SDS011;7466;53.574;9.976;2024-02-21T01:03:39;52.53;;;29.27;;
14748;SDS011;7466;53.574;9.976;2024-02-21T01:06:05;57.90;;;30.43;;
14748;SDS011;7466;53.574;9.976;2024-02-21T01:08:34;54.13;;;28.40;;
14748;SDS011;7466;53.574;9.976;2024-02-21T01:11:00;52.10;;;29.63;;
14748;SDS011;7466;53.574;9.976;2024-02-21T01:13:27;50.77;;;30.03;;
14748;SDS011;7466;53.574;9.976;2024-02-21T01:15:56;50.83;;;30.67;;
14748;SDS011;7466;53.574;9.976;2024-02-21T01:18:22;54.30;;;29.97;;
14748;SDS011;7466;53.574;9.976;2024-02-21T01:20:49;49.37;;;29.77;;
14748;SDS011;7466;53.574;9.976;2024-02-21T01:23:16;59.20;;;29.77;;
14748;SDS011;7466;53.574;9.976;2024-02-21T01:25:44;50.23;;;30.33;;
14748;SDS011;7466;53.574;9.976;2024-02-21T01:28:10;52.47;;;29.83;;
14748;SDS011;7466;53.574;9.976;2024-02-21T01:30:37;52.10;;;29.70;;
14748;SDS011;7466;53.574;9.976;2024-02-21T01:33:04;53.77;;;30.43;;
14748;SDS011;7466;53.574;9.976;2024-02-21T01:35:31;56.00;;;32.00;;
14748;SDS011;7466;53.574;9.976;2024-02-21T01:37:57;54.57;;;30.90;;
14748;SDS011;7466;53.574;9.976;2024-02-21T01:40:24;57.40;;;30.93;;
14748;SDS011;7466;53.574;9.976;2024-02-21T01:42:54;48.30;;;30.20;;
14748;SDS011;7466;53.574;9.976;2024-02-21T01:45:22;54.67;;;33.20;;
14748;SDS011;7466;53.574;9.976;2024-02-21T01:47:49;57.53;;;33.20;;
14748;SDS011;7466;53.574;9.976;2024-02-21T01:50:16;60.20;;;36.20;;
14748;SDS011;7466;53.574;9.976;2024-02-21T01:52:45;63.77;;;36.57;;
14748;SDS011;7466;53.574;9.976;2024-02-21T01:55:14;60.57;;;35.17;;
14748;SDS011;7466;53.574;9.976;2024-02-21T01:57:42;73.27;;;36.87;;
14748;SDS011;7466;53.574;9.976;2024-02-21T02:00:12;65.53;;;36.33;;
14748;SDS011;7466;53.574;9.976;2024-02-21T02:02:40;58.93;;;36.47;;
14748;SDS011;7466;53.574;9.976;2024-02-21T02:05:08;62.13;;;37.10;;
14748;SDS011;7466;53.574;9.976;2024-02-21T02:07:36;66.03;;;38.73;;
14748;SDS011;7466;53.574;9.976;2024-02-21T02:10:03;73.37;;;41.03;;
14748;SDS011;7466;53.574;9.976;2024-02-21T02:12:31;74.23;;;40.97;;
14748;SDS011;7466;53.574;9.976;2024-02-21T02:14:58;79.43;;;41.20;;
14748;SDS011;7466;53.574;9.976;2024-02-21T02:17:27;76.17;;;40.27;;
14748;SDS011;7466;53.574;9.976;2024-02-21T02:19:53;78.00;;;42.33;;
14748;SDS011;7466;53.574;9.976;2024-02-21T02:22:21;84.40;;;42.03;;
14748;SDS011;7466;53.574;9.976;2024-02-21T02:24:53;78.80;;;41.83;;
14748;SDS011;7466;53.574;9.976;2024-02-21T02:27:20;81.40;;;43.70;;
14748;SDS011;7466;53.574;9.976;2024-02-21T02:29:47;85.03;;;45.40;;
14748;SDS011;7466;53.574;9.976;2024-02-21T02:32:14;81.57;;;44.63;;
14748;SDS011;7466;53.574;9.976;2024-02-21T02:34:41;80.33;;;42.33;;
14748;SDS011;7466;53.574;9.976;2024-02-21T02:37:08;85.30;;;44.03;;
14748;SDS011;7466;53.574;9.976;2024-02-21T02:39:35;95.43;;;45.07;;
14748;SDS011;7466;53.574;9.976;2024-02-21T02:42:03;90.37;;;46.10;;
14748;SDS011;7466;53.574;9.976;2024-02-21T02:44:30;87.23;;;45.93;;
14748;SDS011;7466;53.574;9.976;2024-02-21T02:46:58;90.77;;;44.90;;
14748;SDS011;7466;53.574;9.976;2024-02-21T02:49:24;83.30;;;42.50;;
14748;SDS011;7466;53.574;9.976;2024-02-21T02:51:56;83.40;;;42.80;;
14748;SDS011;7466;53.574;9.976;2024-02-21T02:54:23;78.53;;;41.20;;
14748;SDS011;7466;53.574;9.976;2024-02-21T02:56:50;73.53;;;40.27;;
14748;SDS011;7466;53.574;9.976;2024-02-21T02:59:18;76.27;;;40.57;;
14748;SDS011;7466;53.574;9.976;2024-02-21T03:01:45;77.17;;;39.90;;
14748;SDS011;7466;53.574;9.976;2024-02-21T03:04:11;64.47;;;37.43;;
14748;SDS011;7466;53.574;9.976;2024-02-21T03:06:38;73.43;;;40.10;;
14748;SDS011;7466;53.574;9.976;2024-02-21T03:09:05;67.77;;;38.97;;
14748;SDS011;7466;53.574;9.976;2024-02-21T03:11:33;69.60;;;37.70;;
14748;SDS011;7466;53.574;9.976;2024-02-21T03:14:00;67.00;;;39.07;;
14748;SDS011;7466;53.574;9.976;2024-02-21T03:16:28;71.27;;;39.10;;
14748;SDS011;7466;53.574;9.976;2024-02-21T03:18:55;64.23;;;37.07;;
14748;SDS011;7466;53.574;9.976;2024-02-21T03:21:22;73.87;;;39.27;;
14748;SDS011;7466;53.574;9.976;2024-02-21T03:23:49;68.20;;;39.10;;
14748;SDS011;7466;53.574;9.976;2024-02-21T03:26:15;60.53;;;35.57;;
14748;SDS011;7466;53.574;9.976;2024-02-21T03:28:42;61.30;;;36.43;;
14748;SDS011;7466;53.574;9.976;2024-02-21T03:31:10;63.23;;;37.53;;
14748;SDS011;7466;53.574;9.976;2024-02-21T03:33:39;53.60;;;36.20;;
14748;SDS011;7466;53.574;9.976;2024-02-21T03:36:06;60.47;;;34.77;;
14748;SDS011;7466;53.574;9.976;2024-02-21T03:38:38;60.87;;;35.90;;
14748;SDS011;7466;53.574;9.976;2024-02-21T03:41:05;60.60;;;33.30;;
14748;SDS011;7466;53.574;9.976;2024-02-21T03:43:32;55.07;;;34.23;;
14748;SDS011;7466;53.574;9.976;2024-02-21T03:45:59;59.00;;;34.90;;
14748;SDS011;7466;53.574;9.976;2024-02-21T03:48:26;59.23;;;34.37;;
14748;SDS011;7466;53.574;9.976;2024-02-21T03:50:54;56.10;;;33.67;;
14748;SDS011;7466;53.574;9.976;2024-02-21T03:53:21;60.40;;;33.67;;
14748;SDS011;7466;53.574;9.976;2024-02-21T03:55:48;54.73;;;34.13;;
14748;SDS011;7466;53.574;9.976;2024-02-21T03:58:14;60.20;;;33.00;;
14748;SDS011;7466;53.574;9.976;2024-02-21T04:00:41;57.07;;;34.53;;
14748;SDS011;7466;53.574;9.976;2024-02-21T04:03:08;61.33;;;35.70;;
14748;SDS011;7466;53.574;9.976;2024-02-21T04:05:34;68.23;;;35.47;;
14748;SDS011;7466;53.574;9.976;2024-02-21T04:08:04;61.07;;;34.50;;
14748;SDS011;7466;53.574;9.976;2024-02-21T04:10:31;61.47;;;36.10;;
14748;SDS011;7466;53.574;9.976;2024-02-21T04:12:58;60.27;;;34.80;;
14748;SDS011;7466;53.574;9.976;2024-02-21T04:15:25;66.30;;;36.30;;
14748;SDS011;7466;53.574;9.976;2024-02-21T04:17:52;62.13;;;36.07;;
14748;SDS011;7466;53.574;9.976;2024-02-21T04:20:19;64.57;;;35.37;;
14748;SDS011;7466;53.574;9.976;2024-02-21T04:22:45;55.33;;;34.80;;
14748;SDS011;7466;53.574;9.976;2024-02-21T04:25:13;62.77;;;35.93;;
14748;SDS011;7466;53.574;9.976;2024-02-21T04:27:40;65.83;;;37.53;;
14748;SDS011;7466;53.574;9.976;2024-02-21T04:30:08;61.77;;;36.43;;
14748;SDS011;7466;53.574;9.976;2024-02-21T04:32:35;65.30;;;35.63;;
14748;SDS011;7466;53.574;9.976;2024-02-21T04:35:02;60.70;;;35.77;;
14748;SDS011;7466;53.574;9.976;2024-02-21T04:37:29;67.80;;;35.83;;
14748;SDS011;7466;53.574;9.976;2024-02-21T04:39:56;64.93;;;35.40;;
14748;SDS011;7466;53.574;9.976;2024-02-21T04:42:24;62.73;;;33.83;;
14748;SDS011;7466;53.574;9.976;2024-02-21T04:44:51;67.40;;;34.53;;
14748;SDS011;7466;53.574;9.976;2024-02-21T04:47:18;54.33;;;33.97;;
14748;SDS011;7466;53.574;9.976;2024-02-21T04:49:45;59.23;;;32.83;;
14748;SDS011;7466;53.574;9.976;2024-02-21T04:52:12;52.67;;;32.70;;
14748;SDS011;7466;53.574;9.976;2024-02-21T04:54:38;53.53;;;32.37;;
14748;SDS011;7466;53.574;9.976;2024-02-21T04:57:05;54.50;;;32.40;;
14748;SDS011;7466;53.574;9.976;2024-02-21T04:59:33;49.50;;;30.77;;
14748;SDS011;7466;53.574;9.976;2024-02-21T05:02:01;51.47;;;31.00;;
14748;SDS011;7466;53.574;9.976;2024-02-21T05:04:27;50.93;;;29.07;;
14748;SDS011;7466;53.574;9.976;2024-02-21T05:06:54;47.20;;;30.23;;
14748;SDS011;7466;53.574;9.976;2024-02-21T05:09:21;51.80;;;29.93;;
14748;SDS011;7466;53.574;9.976;2024-02-21T05:11:48;46.43;;;28.07;;
14748;SDS011;7466;53.574;9.976;2024-02-21T05:14:14;52.33;;;29.53;;
14748;SDS011;7466;53.574;9.976;2024-02-21T05:16:42;43.73;;;27.97;;
14748;SDS011;7466;53.574;9.976;2024-02-21T05:19:09;48.23;;;28.23;;
14748;SDS011;7466;53.574;9.976;2024-02-21T05:21:36;38.50;;;25.73;;
14748;SDS011;7466;53.574;9.976;2024-02-21T05:24:03;41.03;;;26.57;;
14748;SDS011;7466;53.574;9.976;2024-02-21T05:26:30;41.17;;;25.67;;
14748;SDS011;7466;53.574;9.976;2024-02-21T05:28:57;40.80;;;25.03;;
14748;SDS011;7466;53.574;9.976;2024-02-21T05:31:25;41.27;;;25.00;;
14748;SDS011;7466;53.574;9.976;2024-02-21T05:33:53;35.40;;;22.70;;
14748;SDS011;7466;53.574;9.976;2024-02-21T05:36:19;31.50;;;21.60;;
14748;SDS011;7466;53.574;9.976;2024-02-21T05:38:46;35.10;;;21.97;;
14748;SDS011;7466;53.574;9.976;2024-02-21T05:41:13;35.23;;;21.50;;
14748;SDS011;7466;53.574;9.976;2024-02-21T05:43:40;33.20;;;20.97;;
14748;SDS011;7466;53.574;9.976;2024-02-21T05:46:07;32.63;;;20.03;;
14748;SDS011;7466;53.574;9.976;2024-02-21T05:48:33;28.17;;;19.90;;
14748;SDS011;7466;53.574;9.976;2024-02-21T05:51:02;28.20;;;18.50;;
14748;SDS011;7466;53.574;9.976;2024-02-21T05:53:29;30.97;;;19.93;;
14748;SDS011;7466;53.574;9.976;2024-02-21T05:55:56;31.33;;;19.03;;
14748;SDS011;7466;53.574;9.976;2024-02-21T05:58:23;27.10;;;18.10;;
14748;SDS011;7466;53.574;9.976;2024-02-21T06:00:50;25.30;;;16.53;;
14748;SDS011;7466;53.574;9.976;2024-02-21T06:03:17;21.43;;;16.97;;
14748;SDS011;7466;53.574;9.976;2024-02-21T06:05:43;25.00;;;16.23;;
14748;SDS011;7466;53.574;9.976;2024-02-21T06:08:12;21.50;;;15.40;;
14748;SDS011;7466;53.574;9.976;2024-02-21T06:10:38;23.63;;;16.13;;
14748;SDS011;7466;53.574;9.976;2024-02-21T06:13:05;22.50;;;14.83;;
14748;SDS011;7466;53.574;9.976;2024-02-21T06:15:32;23.70;;;16.37;;
14748;SDS011;7466;53.574;9.976;2024-02-21T06:17:59;29.43;;;15.77;;
14748;SDS011;7466;53.574;9.976;2024-02-21T06:20:25;21.37;;;15.30;;
14748;SDS011;7466;53.574;9.976;2024-02-21T06:22:53;21.03;;;15.80;;
14748;SDS011;7466;53.574;9.976;2024-02-21T06:25:21;19.07;;;14.43;;
14748;SDS011;7466;53.574;9.976;2024-02-21T06:27:48;20.80;;;14.00;;
14748;SDS011;7466;53.574;9.976;2024-02-21T06:30:14;19.10;;;13.63;;
14748;SDS011;7466;53.574;9.976;2024-02-21T06:32:41;22.07;;;14.10;;
14748;SDS011;7466;53.574;9.976;2024-02-21T06:35:08;21.70;;;14.50;;
14748;SDS011;7466;53.574;9.976;2024-02-21T06:37:35;14.80;;;12.30;;
14748;SDS011;7466;53.574;9.976;2024-02-21T06:40:03;15.93;;;12.20;;
14748;SDS011;7466;53.574;9.976;2024-02-21T06:42:31;16.87;;;11.93;;
14748;SDS011;7466;53.574;9.976;2024-02-21T06:44:58;12.80;;;10.97;;
14748;SDS011;7466;53.574;9.976;2024-02-21T06:47:25;14.63;;;11.07;;
14748;SDS011;7466;53.574;9.976;2024-02-21T06:49:52;11.50;;;9.97;;
14748;SDS011;7466;53.574;9.976;2024-02-21T06:52:19;14.90;;;11.13;;
14748;SDS011;7466;53.574;9.976;2024-02-21T06:54:46;13.17;;;10.60;;
14748;SDS011;7466;53.574;9.976;2024-02-21T06:57:13;13.17;;;10.40;;
14748;SDS011;7466;53.574;9.976;2024-02-21T06:59:41;11.60;;;9.57;;
14748;SDS011;7466;53.574;9.976;2024-02-21T07:02:10;13.07;;;10.93;;
14748;SDS011;7466;53.574;9.976;2024-02-21T07:04:37;14.33;;;11.13;;
14748;SDS011;7466;53.574;9.976;2024-02-21T07:07:04;14.67;;;10.87;;
14748;SDS011;7466;53.574;9.976;2024-02-21T07:09:30;14.50;;;11.73;;
14748;SDS011;7466;53.574;9.976;2024-02-21T07:11:57;16.97;;;11.77;;
14748;SDS011;7466;53.574;9.976;2024-02-21T07:14:24;15.83;;;12.57;;
14748;SDS011;7466;53.574;9.976;2024-02-21T07:16:52;15.17;;;12.73;;
14748;SDS011;7466;53.574;9.976;2024-02-21T07:19:19;15.93;;;12.10;;
14748;SDS011;7466;53.574;9.976;2024-02-21T07:21:46;16.87;;;12.73;;
14748;SDS011;7466;53.574;9.976;2024-02-21T07:24:13;13.70;;;11.47;;
14748;SDS011;7466;53.574;9.976;2024-02-21T07:26:41;14.23;;;10.73;;
14748;SDS011;7466;53.574;9.976;2024-02-21T07:29:08;17.37;;;12.30;;
14748;SDS011;7466;53.574;9.976;2024-02-21T07:31:40;16.47;;;11.83;;
14748;SDS011;7466;53.574;9.976;2024-02-21T07:34:09;13.73;;;12.17;;
14748;SDS011;7466;53.574;9.976;2024-02-21T07:36:37;18.27;;;11.83;;
14748;SDS011;7466;53.574;9.976;2024-02-21T07:39:03;13.93;;;11.80;;
14748;SDS011;7466;53.574;9.976;2024-02-21T07:41:30;15.57;;;11.37;;
14748;SDS011;7466;53.574;9.976;2024-02-21T07:43:58;16.10;;;12.13;;
14748;SDS011;7466;53.574;9.976;2024-02-21T07:46:25;13.33;;;11.47;;
14748;SDS011;7466;53.574;9.976;2024-02-21T07:48:52;16.33;;;11.63;;
14748;SDS011;7466;53.574;9.976;2024-02-21T07:51:20;16.50;;;10.10;;
14748;SDS011;7466;53.574;9.976;2024-02-21T07:53:47;11.40;;;9.90;;
14748;SDS011;7466;53.574;9.976;2024-02-21T07:56:14;11.13;;;9.87;;
14748;SDS011;7466;53.574;9.976;2024-02-21T07:58:41;10.30;;;9.20;;
14748;SDS011;7466;53.574;9.976;2024-02-21T08:01:08;10.67;;;9.67;;
14748;SDS011;7466;53.574;9.976;2024-02-21T08:03:36;8.93;;;8.13;;
14748;SDS011;7466;53.574;9.976;2024-02-21T08:06:03;9.93;;;8.70;;
14748;SDS011;7466;53.574;9.976;2024-02-21T08:08:31;16.67;;;7.17;;
14748;SDS011;7466;53.574;9.976;2024-02-21T08:10:58;12.07;;;7.70;;
14748;SDS011;7466;53.574;9.976;2024-02-21T08:13:24;16.33;;;7.93;;
14748;SDS011;7466;53.574;9.976;2024-02-21T08:15:53;16.73;;;7.20;;
14748;SDS011;7466;53.574;9.976;2024-02-21T08:18:20;20.73;;;7.37;;
14748;SDS011;7466;53.574;9.976;2024-02-21T08:20:47;13.87;;;6.17;;
14748;SDS011;7466;53.574;9.976;2024-02-21T08:23:15;20.03;;;6.07;;
14748;SDS011;7466;53.574;9.976;2024-02-21T08:25:43;21.13;;;6.80;;
14748;SDS011;7466;53.574;9.976;2024-02-21T08:28:10;22.60;;;5.97;;
14748;SDS011;7466;53.574;9.976;2024-02-21T08:30:38;20.57;;;5.53;;
14748;SDS011;7466;53.574;9.976;2024-02-21T08:33:05;17.53;;;5.43;;
14748;SDS011;7466;53.574;9.976;2024-02-21T08:35:32;14.10;;;5.43;;
14748;SDS011;7466;53.574;9.976;2024-02-21T08:37:58;19.63;;;6.17;;
14748;SDS011;7466;53.574;9.976;2024-02-21T08:40:25;15.13;;;5.13;;
14748;SDS011;7466;53.574;9.976;2024-02-21T08:42:53;18.70;;;5.53;;
14748;SDS011;7466;53.574;9.976;2024-02-21T08:45:20;25.50;;;5.47;;
14748;SDS011;7466;53.574;9.976;2024-02-21T08:47:47;15.50;;;5.13;;
14748;SDS011;7466;53.574;9.976;2024-02-21T08:50:13;12.50;;;5.10;;
14748;SDS011;7466;53.574;9.976;2024-02-21T08:52:40;15.77;;;5.30;;
14748;SDS011;7466;53.574;9.976;2024-02-21T08:55:07;19.53;;;5.67;;
14748;SDS011;7466;53.574;9.976;2024-02-21T08:57:34;15.20;;;4.10;;
14748;SDS011;7466;53.574;9.976;2024-02-21T09:00:04;14.87;;;4.97;;
14748;SDS011;7466;53.574;9.976;2024-02-21T09:02:34;16.67;;;4.93;;
14748;SDS011;7466;53.574;9.976;2024-02-21T09:05:03;40.43;;;7.13;;
14748;SDS011;7466;53.574;9.976;2024-02-21T09:07:30;25.17;;;5.83;;
14748;SDS011;7466;53.574;9.976;2024-02-21T09:09:57;18.63;;;5.43;;
14748;SDS011;7466;53.574;9.976;2024-02-21T09:12:24;18.33;;;5.10;;
14748;SDS011;7466;53.574;9.976;2024-02-21T09:14:51;14.93;;;5.13;;
14748;SDS011;7466;53.574;9.976;2024-02-21T09:17:19;14.87;;;4.83;;
14748;SDS011;7466;53.574;9.976;2024-02-21T09:19:46;18.30;;;5.07;;
14748;SDS011;7466;53.574;9.976;2024-02-21T09:22:13;16.60;;;4.67;;
14748;SDS011;7466;53.574;9.976;2024-02-21T09:24:40;16.10;;;4.60;;
14748;SDS011;7466;53.574;9.976;2024-02-21T09:27:07;14.57;;;4.17;;
14748;SDS011;7466;53.574;9.976;2024-02-21T09:29:34;17.73;;;4.40;;
14748;SDS011;7466;53.574;9.976;2024-02-21T09:32:01;13.27;;;3.93;;
14748;SDS011;7466;53.574;9.976;2024-02-21T09:34:29;12.43;;;3.70;;
14748;SDS011;7466;53.574;9.976;2024-02-21T09:36:56;13.57;;;3.87;;
14748;SDS011;7466;53.574;9.976;2024-02-21T09:39:23;13.43;;;4.03;;
14748;SDS011;7466;53.574;9.976;2024-02-21T09:41:50;15.43;;;4.60;;
14748;SDS011;7466;53.574;9.976;2024-02-21T09:44:24;11.23;;;4.10;;
14748;SDS011;7466;53.574;9.976;2024-02-21T09:46:57;10.97;;;4.90;;
14748;SDS011;7466;53.574;9.976;2024-02-21T09:49:31;11.00;;;4.03;;
14748;SDS011;7466;53.574;9.976;2024-02-21T09:51:59;11.23;;;4.43;;
14748;SDS011;7466;53.574;9.976;2024-02-21T09:54:28;11.17;;;4.17;;
14748;SDS011;7466;53.574;9.976;2024-02-21T09:56:56;7.03;;;3.83;;
14748;SDS011;7466;53.574;9.976;2024-02-21T09:59:23;11.93;;;4.17;;
14748;SDS011;7466;53.574;9.976;2024-02-21T10:01:51;8.97;;;4.00;;
14748;SDS011;7466;53.574;9.976;2024-02-21T10:04:17;10.17;;;3.80;;
14748;SDS011;7466;53.574;9.976;2024-02-21T10:06:46;8.27;;;4.57;;
14748;SDS011;7466;53.574;9.976;2024-02-21T10:09:19;8.67;;;4.67;;
14748;SDS011;7466;53.574;9.976;2024-02-21T10:11:47;7.67;;;6.33;;
14748;SDS011;7466;53.574;9.976;2024-02-21T10:14:14;10.90;;;7.27;;
14748;SDS011;7466;53.574;9.976;2024-02-21T10:16:42;44.90;;;11.07;;
14748;SDS011;7466;53.574;9.976;2024-02-21T10:19:15;12.00;;;10.13;;
14748;SDS011;7466;53.574;9.976;2024-02-21T10:21:43;17.93;;;13.07;;
14748;SDS011;7466;53.574;9.976;2024-02-21T10:24:12;21.13;;;14.73;;
14748;SDS011;7466;53.574;9.976;2024-02-21T10:26:38;22.57;;;15.97;;
14748;SDS011;7466;53.574;9.976;2024-02-21T10:29:05;22.20;;;16.57;;
14748;SDS011;7466;53.574;9.976;2024-02-21T10:31:32;23.67;;;18.27;;
14748;SDS011;7466;53.574;9.976;2024-02-21T10:33:59;30.50;;;23.10;;
14748;SDS011;7466;53.574;9.976;2024-02-21T10:36:28;32.33;;;22.90;;
14748;SDS011;7466;53.574;9.976;2024-02-21T10:38:55;34.87;;;23.10;;
14748;SDS011;7466;53.574;9.976;2024-02-21T10:41:23;35.50;;;23.83;;
14748;SDS011;7466;53.574;9.976;2024-02-21T10:43:52;41.13;;;25.40;;
14748;SDS011;7466;53.574;9.976;2024-02-21T10:46:20;41.37;;;25.27;;
14748;SDS011;7466;53.574;9.976;2024-02-21T10:49:01;42.07;;;25.47;;
14748;SDS011;7466;53.574;9.976;2024-02-21T10:51:37;42.87;;;26.17;;
14748;SDS011;7466;53.574;9.976;2024-02-21T10:54:11;43.27;;;26.87;;
14748;SDS011;7466;53.574;9.976;2024-02-21T10:56:49;40.03;;;25.47;;
14748;SDS011;7466;53.574;9.976;2024-02-21T10:59:17;43.40;;;26.57;;
14748;SDS011;7466;53.574;9.976;2024-02-21T11:01:45;43.47;;;26.77;;
14748;SDS011;7466;53.574;9.976;2024-02-21T11:04:12;42.00;;;25.33;;
14748;SDS011;7466;53.574;9.976;2024-02-21T11:06:39;41.77;;;25.00;;
14748;SDS011;7466;53.574;9.976;2024-02-21T11:09:08;37.77;;;24.67;;
14748;SDS011;7466;53.574;9.976;2024-02-21T11:11:35;38.50;;;24.63;;
14748;SDS011;7466;53.574;9.976;2024-02-21T11:14:06;41.63;;;25.13;;
14748;SDS011;7466;53.574;9.976;2024-02-21T11:16:37;39.43;;;23.83;;
14748;SDS011;7466;53.574;9.976;2024-02-21T11:19:07;40.47;;;24.57;;
14748;SDS011;7466;53.574;9.976;2024-02-21T11:21:36;43.43;;;22.20;;
14748;SDS011;7466;53.574;9.976;2024-02-21T11:24:04;42.20;;;22.47;;
14748;SDS011;7466;53.574;9.976;2024-02-21T11:26:31;29.50;;;21.30;;
14748;SDS011;7466;53.574;9.976;2024-02-21T11:28:59;31.90;;;19.77;;
14748;SDS011;7466;53.574;9.976;2024-02-21T11:31:37;32.80;;;19.47;;
14748;SDS011;7466;53.574;9.976;2024-02-21T11:34:08;30.57;;;19.60;;
14748;SDS011;7466;53.574;9.976;2024-02-21T11:36:35;31.10;;;18.93;;
14748;SDS011;7466;53.574;9.976;2024-02-21T11:39:03;28.40;;;18.47;;
14748;SDS011;7466;53.574;9.976;2024-02-21T11:41:30;28.27;;;17.90;;
14748;SDS011;7466;53.574;9.976;2024-02-21T11:43:57;33.70;;;18.10;;
14748;SDS011;7466;53.574;9.976;2024-02-21T11:46:24;25.53;;;17.37;;
14748;SDS011;7466;53.574;9.976;2024-02-21T11:48:52;25.40;;;16.43;;
14748;SDS011;7466;53.574;9.976;2024-02-21T11:51:22;22.87;;;15.43;;
14748;SDS011;7466;53.574;9.976;2024-02-21T11:53:51;25.83;;;16.27;;
14748;SDS011;7466;53.574;9.976;2024-02-21T11:56:18;22.67;;;16.17;;
14748;SDS011;7466;53.574;9.976;2024-02-21T11:58:45;24.37;;;16.37;;
14748;SDS011;7466;53.574;9.976;2024-02-21T12:01:12;23.90;;;15.73;;
14748;SDS011;7466;53.574;9.976;2024-02-21T12:03:39;24.33;;;16.40;;
14748;SDS011;7466;53.574;9.976;2024-02-21T12:06:08;29.37;;;15.80;;
14748;SDS011;7466;53.574;9.976;2024-02-21T12:08:41;20.83;;;16.13;;
14748;SDS011;7466;53.574;9.976;2024-02-21T12:11:15;23.70;;;15.80;;
14748;SDS011;7466;53.574;9.976;2024-02-21T12:13:44;21.57;;;14.77;;
14748;SDS011;7466;53.574;9.976;2024-02-21T12:16:10;23.50;;;15.67;;
14748;SDS011;7466;53.574;9.976;2024-02-21T12:18:39;22.23;;;15.73;;
14748;SDS011;7466;53.574;9.976;2024-02-21T12:21:05;23.67;;;15.50;;
14748;SDS011;7466;53.574;9.976;2024-02-21T12:23:34;23.63;;;15.57;;
14748;SDS011;7466;53.574;9.976;2024-02-21T12:26:01;21.60;;;14.80;;
14748;SDS011;7466;53.574;9.976;2024-02-21T12:28:30;24.33;;;15.63;;
14748;SDS011;7466;53.574;9.976;2024-02-21T12:30:56;19.07;;;14.37;;
14748;SDS011;7466;53.574;9.976;2024-02-21T12:33:23;24.37;;;15.90;;
14748;SDS011;7466;53.574;9.976;2024-02-21T12:35:50;26.67;;;14.87;;
14748;SDS011;7466;53.574;9.976;2024-02-21T12:38:21;21.63;;;15.37;;
14748;SDS011;7466;53.574;9.976;2024-02-21T12:40:48;21.70;;;14.20;;
14748;SDS011;7466;53.574;9.976;2024-02-21T12:43:14;23.60;;;15.50;;
14748;SDS011;7466;53.574;9.976;2024-02-21T12:45:42;25.87;;;16.23;;
14748;SDS011;7466;53.574;9.976;2024-02-21T12:48:09;22.10;;;16.33;;
14748;SDS011;7466;53.574;9.976;2024-02-21T12:50:39;28.70;;;17.10;;
14748;SDS011;7466;53.574;9.976;2024-02-21T12:53:06;26.23;;;16.90;;
14748;SDS011;7466;53.574;9.976;2024-02-21T12:55:34;31.93;;;18.20;;
14748;SDS011;7466;53.574;9.976;2024-02-21T12:58:03;32.30;;;17.43;;
14748;SDS011;7466;53.574;9.976;2024-02-21T13:00:31;25.50;;;17.83;;
14748;SDS011;7466;53.574;9.976;2024-02-21T13:03:00;31.57;;;19.10;;
14748;SDS011;7466;53.574;9.976;2024-02-21T13:05:27;31.93;;;19.30;;
14748;SDS011;7466;53.574;9.976;2024-02-21T13:07:54;38.23;;;20.20;;
14748;SDS011;7466;53.574;9.976;2024-02-21T13:10:21;32.17;;;19.23;;
14748;SDS011;7466;53.574;9.976;2024-02-21T13:12:49;26.60;;;19.87;;
14748;SDS011;7466;53.574;9.976;2024-02-21T13:15:17;28.20;;;18.53;;
14748;SDS011;7466;53.574;9.976;2024-02-21T13:17:44;27.60;;;17.27;;
14748;SDS011;7466;53.574;9.976;2024-02-21T13:20:11;26.30;;;17.73;;
14748;SDS011;7466;53.574;9.976;2024-02-21T13:22:38;30.43;;;17.47;;
14748;SDS011;7466;53.574;9.976;2024-02-21T13:25:05;22.97;;;17.10;;
14748;SDS011;7466;53.574;9.976;2024-02-21T13:27:32;26.30;;;16.60;;
14748;SDS011;7466;53.574;9.976;2024-02-21T13:30:00;28.93;;;16.73;;
14748;SDS011;7466;53.574;9.976;2024-02-21T13:32:30;26.93;;;16.43;;
14748;SDS011;7466;53.574;9.976;2024-02-21T13:34:57;27.27;;;16.80;;
14748;SDS011;7466;53.574;9.976;2024-02-21T13:37:26;25.40;;;16.33;;
14748;SDS011;7466;53.574;9.976;2024-02-21T13:39:53;23.07;;;15.90;;
14748;SDS011;7466;53.574;9.976;2024-02-21T13:42:21;22.70;;;15.83;;
14748;SDS011;7466;53.574;9.976;2024-02-21T13:44:48;25.93;;;15.63;;
14748;SDS011;7466;53.574;9.976;2024-02-21T13:47:17;23.37;;;15.50;;
14748;SDS011;7466;53.574;9.976;2024-02-21T13:49:43;23.67;;;14.47;;
14748;SDS011;7466;53.574;9.976;2024-02-21T13:52:10;24.67;;;15.00;;
14748;SDS011;7466;53.574;9.976;2024-02-21T13:54:37;19.07;;;15.10;;
14748;SDS011;7466;53.574;9.976;2024-02-21T13:57:04;19.00;;;14.03;;
14748;SDS011;7466;53.574;9.976;2024-02-21T13:59:30;18.30;;;13.80;;
14748;SDS011;7466;53.574;9.976;2024-02-21T14:01:58;21.43;;;13.83;;
14748;SDS011;7466;53.574;9.976;2024-02-21T14:04:26;24.53;;;14.90;;
14748;SDS011;7466;53.574;9.976;2024-02-21T14:06:55;26.43;;;14.27;;
14748;SDS011;7466;53.574;9.976;2024-02-21T14:09:22;19.70;;;13.73;;
14748;SDS011;7466;53.574;9.976;2024-02-21T14:11:48;19.73;;;13.63;;
14748;SDS011;7466;53.574;9.976;2024-02-21T14:14:15;20.23;;;13.10;;
14748;SDS011;7466;53.574;9.976;2024-02-21T14:16:44;16.93;;;12.73;;
14748;SDS011;7466;53.574;9.976;2024-02-21T14:19:12;18.13;;;13.00;;
14748;SDS011;7466;53.574;9.976;2024-02-21T14:21:41;16.70;;;12.27;;
14748;SDS011;7466;53.574;9.976;2024-02-21T14:24:08;15.13;;;10.97;;
14748;SDS011;7466;53.574;9.976;2024-02-21T14:26:36;20.20;;;12.17;;
14748;SDS011;7466;53.574;9.976;2024-02-21T14:29:04;18.80;;;11.83;;
14748;SDS011;7466;53.574;9.976;2024-02-21T14:31:31;15.40;;;11.37;;
14748;SDS011;7466;53.574;9.976;2024-02-21T14:33:58;17.70;;;11.10;;
14748;SDS011;7466;53.574;9.976;2024-02-21T14:36:28;17.03;;;11.00;;
14748;SDS011;7466;53.574;9.976;2024-02-21T14:38:56;20.63;;;10.40;;